sensor_id;sensor_type;location;lat;lon;timestamp;temperature;humidity
18779;DHT22;9518;51.720;14.384;2022-07-23T00:00:29;17.40;1.00
18779;DHT22;9518;51.720;14.384;2022-07-23T00:02:56;17.40;1.00
18779;DHT22;9518;51.720;14.384;2022-07-23T00:05:22;17.30;1.00
18779;DHT22;9518;51.720;14.384;2022-07-23T00:07:49;17.30;1.00
18779;DHT22;9518;51.720;14.384;2022-07-23T00:10:18;17.20;1.00
18779;DHT22;9518;51.720;14.384;2022-07-23T00:12:45;17.20;1.00
18779;DHT22;9518;51.720;14.384;2022-07-23T00:15:11;17.20;1.00
18779;DHT22;9518;51.720;14.384;2022-07-23T00:17:38;17.20;1.00
18779;DHT22;9518;51.720;14.384;2022-07-23T00:20:06;17.10;1.00
18779;DHT22;9518;51.720;14.384;2022-07-23T00:22:34;17.10;1.00
18779;DHT22;9518;51.720;14.384;2022-07-23T00:25:01;17.10;1.00
18779;DHT22;9518;51.720;14.384;2022-07-23T00:27:29;17.10;1.00
18779;DHT22;9518;51.720;14.384;2022-07-23T00:29:56;17.00;1.00
18779;DHT22;9518;51.720;14.384;2022-07-23T00:32:23;17.00;1.00
18779;DHT22;9518;51.720;14.384;2022-07-23T00:34:50;16.90;1.00
18779;DHT22;9518;51.720;14.384;2022-07-23T00:37:16;17.00;1.00
18779;DHT22;9518;51.720;14.384;2022-07-23T00:39:43;17.00;1.00
18779;DHT22;9518;51.720;14.384;2022-07-23T00:42:10;17.00;1.00
18779;DHT22;9518;51.720;14.384;2022-07-23T00:44:39;16.90;1.00
18779;DHT22;9518;51.720;14.384;2022-07-23T00:47:05;16.90;1.00
18779;DHT22;9518;51.720;14.384;2022-07-23T00:49:32;16.90;1.00
18779;DHT22;9518;51.720;14.384;2022-07-23T00:52:01;16.90;1.00
18779;DHT22;9518;51.720;14.384;2022-07-23T00:54:28;16.80;1.00
18779;DHT22;9518;51.720;14.384;2022-07-23T00:56:55;16.80;1.00
18779;DHT22;9518;51.720;14.384;2022-07-23T00:59:22;16.80;1.00
18779;DHT22;9518;51.720;14.384;2022-07-23T01:01:51;16.80;1.00
18779;DHT22;9518;51.720;14.384;2022-07-23T01:04:17;16.70;1.00
18779;DHT22;9518;51.720;14.384;2022-07-23T01:06:45;16.70;1.00
18779;DHT22;9518;51.720;14.384;2022-07-23T01:09:12;16.60;1.00
18779;DHT22;9518;51.720;14.384;2022-07-23T01:11:41;16.60;1.00
18779;DHT22;9518;51.720;14.384;2022-07-23T01:14:12;16.60;1.00
18779;DHT22;9518;51.720;14.384;2022-07-23T01:16:40;16.50;1.00
18779;DHT22;9518;51.720;14.384;2022-07-23T01:19:08;16.40;1.00
18779;DHT22;9518;51.720;14.384;2022-07-23T01:21:40;16.40;1.00
18779;DHT22;9518;51.720;14.384;2022-07-23T01:24:10;16.30;1.00
18779;DHT22;9518;51.720;14.384;2022-07-23T01:26:38;16.30;1.00
18779;DHT22;9518;51.720;14.384;2022-07-23T01:29:05;16.20;1.00
18779;DHT22;9518;51.720;14.384;2022-07-23T01:31:32;16.20;1.00
18779;DHT22;9518;51.720;14.384;2022-07-23T01:33:59;16.10;1.00
18779;DHT22;9518;51.720;14.384;2022-07-23T01:36:26;16.10;1.00
18779;DHT22;9518;51.720;14.384;2022-07-23T01:38:53;16.00;1.00
18779;DHT22;9518;51.720;14.384;2022-07-23T01:41:22;16.10;1.00
18779;DHT22;9518;51.720;14.384;2022-07-23T01:43:50;16.20;99.90
18779;DHT22;9518;51.720;14.384;2022-07-23T01:46:17;16.10;1.00
18779;DHT22;9518;51.720;14.384;2022-07-23T01:48:44;16.10;1.00
18779;DHT22;9518;51.720;14.384;2022-07-23T01:51:11;16.00;1.00
18779;DHT22;9518;51.720;14.384;2022-07-23T01:53:38;16.00;1.00
18779;DHT22;9518;51.720;14.384;2022-07-23T01:56:05;16.00;1.00
18779;DHT22;9518;51.720;14.384;2022-07-23T01:58:34;16.00;1.00
18779;DHT22;9518;51.720;14.384;2022-07-23T02:01:00;16.00;1.00
18779;DHT22;9518;51.720;14.384;2022-07-23T02:03:27;15.90;1.00
18779;DHT22;9518;51.720;14.384;2022-07-23T02:05:54;15.90;1.00
18779;DHT22;9518;51.720;14.384;2022-07-23T02:08:21;15.90;1.00
18779;DHT22;9518;51.720;14.384;2022-07-23T02:10:48;15.80;1.00
18779;DHT22;9518;51.720;14.384;2022-07-23T02:13:16;15.80;1.00
18779;DHT22;9518;51.720;14.384;2022-07-23T02:15:45;15.70;1.00
18779;DHT22;9518;51.720;14.384;2022-07-23T02:18:12;15.70;1.00
18779;DHT22;9518;51.720;14.384;2022-07-23T02:20:39;15.70;1.00
18779;DHT22;9518;51.720;14.384;2022-07-23T02:23:06;15.70;1.00
18779;DHT22;9518;51.720;14.384;2022-07-23T02:25:33;15.70;1.00
18779;DHT22;9518;51.720;14.384;2022-07-23T02:28:00;15.70;1.00
18779;DHT22;9518;51.720;14.384;2022-07-23T02:30:27;15.70;1.00
18779;DHT22;9518;51.720;14.384;2022-07-23T02:32:55;15.70;1.00
18779;DHT22;9518;51.720;14.384;2022-07-23T02:35:22;15.80;99.90
18779;DHT22;9518;51.720;14.384;2022-07-23T02:37:49;15.80;99.90
18779;DHT22;9518;51.720;14.384;2022-07-23T02:40:16;15.90;99.90
18779;DHT22;9518;51.720;14.384;2022-07-23T02:42:43;16.00;1.00
18779;DHT22;9518;51.720;14.384;2022-07-23T02:45:10;16.10;1.00
18779;DHT22;9518;51.720;14.384;2022-07-23T02:47:37;16.10;1.00
18779;DHT22;9518;51.720;14.384;2022-07-23T02:50:06;16.10;1.00
18779;DHT22;9518;51.720;14.384;2022-07-23T02:52:34;16.10;1.00
18779;DHT22;9518;51.720;14.384;2022-07-23T02:55:03;16.10;1.00
18779;DHT22;9518;51.720;14.384;2022-07-23T02:57:30;16.10;1.00
18779;DHT22;9518;51.720;14.384;2022-07-23T02:59:57;16.10;1.00
18779;DHT22;9518;51.720;14.384;2022-07-23T03:02:24;16.10;1.00
18779;DHT22;9518;51.720;14.384;2022-07-23T03:04:51;16.00;1.00
18779;DHT22;9518;51.720;14.384;2022-07-23T03:07:19;15.90;1.00
18779;DHT22;9518;51.720;14.384;2022-07-23T03:09:46;15.90;1.00
18779;DHT22;9518;51.720;14.384;2022-07-23T03:12:13;15.90;1.00
18779;DHT22;9518;51.720;14.384;2022-07-23T03:14:40;15.90;1.00
18779;DHT22;9518;51.720;14.384;2022-07-23T03:17:07;15.90;1.00
18779;DHT22;9518;51.720;14.384;2022-07-23T03:19:34;16.00;1.00
18779;DHT22;9518;51.720;14.384;2022-07-23T03:22:02;16.10;1.00
18779;DHT22;9518;51.720;14.384;2022-07-23T03:24:30;16.30;1.00
18779;DHT22;9518;51.720;14.384;2022-07-23T03:27:11;16.30;1.00
18779;DHT22;9518;51.720;14.384;2022-07-23T03:29:38;16.40;1.00
18779;DHT22;9518;51.720;14.384;2022-07-23T03:32:05;16.40;1.00
18779;DHT22;9518;51.720;14.384;2022-07-23T03:34:32;16.40;1.00
18779;DHT22;9518;51.720;14.384;2022-07-23T03:36:59;16.50;1.00
18779;DHT22;9518;51.720;14.384;2022-07-23T03:39:26;16.60;1.00
18779;DHT22;9518;51.720;14.384;2022-07-23T03:41:54;16.70;1.00
18779;DHT22;9518;51.720;14.384;2022-07-23T03:44:21;16.70;1.00
18779;DHT22;9518;51.720;14.384;2022-07-23T03:46:48;16.70;1.00
18779;DHT22;9518;51.720;14.384;2022-07-23T03:49:14;16.80;1.00
18779;DHT22;9518;51.720;14.384;2022-07-23T03:51:41;16.80;1.00
18779;DHT22;9518;51.720;14.384;2022-07-23T03:54:08;16.90;1.00
18779;DHT22;9518;51.720;14.384;2022-07-23T03:56:35;17.00;1.00
18779;DHT22;9518;51.720;14.384;2022-07-23T03:59:04;17.10;1.00
18779;DHT22;9518;51.720;14.384;2022-07-23T04:01:31;17.20;1.00
18779;DHT22;9518;51.720;14.384;2022-07-23T04:03:58;17.30;1.00
18779;DHT22;9518;51.720;14.384;2022-07-23T04:06:25;17.40;1.00
18779;DHT22;9518;51.720;14.384;2022-07-23T04:08:52;17.50;1.00
18779;DHT22;9518;51.720;14.384;2022-07-23T04:11:18;17.60;99.90
18779;DHT22;9518;51.720;14.384;2022-07-23T04:13:45;17.70;99.90
18779;DHT22;9518;51.720;14.384;2022-07-23T04:16:14;17.80;1.00
18779;DHT22;9518;51.720;14.384;2022-07-23T04:18:43;17.90;1.00
18779;DHT22;9518;51.720;14.384;2022-07-23T04:21:10;17.90;1.00
18779;DHT22;9518;51.720;14.384;2022-07-23T04:23:37;17.90;70.30
18779;DHT22;9518;51.720;14.384;2022-07-23T04:26:04;17.80;1.00
18779;DHT22;9518;51.720;14.384;2022-07-23T04:28:31;17.90;1.00
18779;DHT22;9518;51.720;14.384;2022-07-23T04:30:58;17.80;1.00
18779;DHT22;9518;51.720;14.384;2022-07-23T04:33:27;17.70;99.90
18779;DHT22;9518;51.720;14.384;2022-07-23T04:35:54;17.80;99.90
18779;DHT22;9518;51.720;14.384;2022-07-23T04:38:21;17.80;1.00
18779;DHT22;9518;51.720;14.384;2022-07-23T04:40:48;17.90;1.00
18779;DHT22;9518;51.720;14.384;2022-07-23T04:43:18;17.90;99.90
18779;DHT22;9518;51.720;14.384;2022-07-23T04:45:45;17.80;99.90
18779;DHT22;9518;51.720;14.384;2022-07-23T04:48:12;17.90;99.90
18779;DHT22;9518;51.720;14.384;2022-07-23T04:50:40;17.90;1.00
18779;DHT22;9518;51.720;14.384;2022-07-23T04:53:08;17.90;1.00
18779;DHT22;9518;51.720;14.384;2022-07-23T04:55:38;18.00;1.00
18779;DHT22;9518;51.720;14.384;2022-07-23T04:58:04;18.10;99.90
18779;DHT22;9518;51.720;14.384;2022-07-23T05:00:31;18.10;99.90
18779;DHT22;9518;51.720;14.384;2022-07-23T05:02:58;18.10;1.00
18779;DHT22;9518;51.720;14.384;2022-07-23T05:05:25;18.10;1.00
18779;DHT22;9518;51.720;14.384;2022-07-23T05:07:53;18.30;1.00
18779;DHT22;9518;51.720;14.384;2022-07-23T05:10:20;18.40;1.00
18779;DHT22;9518;51.720;14.384;2022-07-23T05:12:47;18.40;1.00
18779;DHT22;9518;51.720;14.384;2022-07-23T05:15:14;18.50;99.90
18779;DHT22;9518;51.720;14.384;2022-07-23T05:17:41;18.60;99.90
18779;DHT22;9518;51.720;14.384;2022-07-23T05:20:09;18.70;99.90
18779;DHT22;9518;51.720;14.384;2022-07-23T05:22:36;18.80;1.00
18779;DHT22;9518;51.720;14.384;2022-07-23T05:25:05;19.00;1.00
18779;DHT22;9518;51.720;14.384;2022-07-23T05:27:32;19.20;99.90
18779;DHT22;9518;51.720;14.384;2022-07-23T05:29:59;19.20;1.00
18779;DHT22;9518;51.720;14.384;2022-07-23T05:32:26;19.20;1.00
18779;DHT22;9518;51.720;14.384;2022-07-23T05:34:53;19.10;1.00
18779;DHT22;9518;51.720;14.384;2022-07-23T05:37:20;19.00;1.00
18779;DHT22;9518;51.720;14.384;2022-07-23T05:39:47;18.90;1.00
18779;DHT22;9518;51.720;14.384;2022-07-23T05:42:15;18.90;99.90
18779;DHT22;9518;51.720;14.384;2022-07-23T05:44:42;18.80;1.00
18779;DHT22;9518;51.720;14.384;2022-07-23T05:47:09;18.80;1.00
18779;DHT22;9518;51.720;14.384;2022-07-23T05:49:37;18.70;1.00
18779;DHT22;9518;51.720;14.384;2022-07-23T05:52:04;18.70;1.00
18779;DHT22;9518;51.720;14.384;2022-07-23T05:54:34;18.70;1.00
18779;DHT22;9518;51.720;14.384;2022-07-23T05:57:01;18.70;1.00
18779;DHT22;9518;51.720;14.384;2022-07-23T05:59:29;18.70;1.00
18779;DHT22;9518;51.720;14.384;2022-07-23T06:01:56;18.80;99.90
18779;DHT22;9518;51.720;14.384;2022-07-23T06:04:23;18.80;1.00
18779;DHT22;9518;51.720;14.384;2022-07-23T06:06:50;18.80;1.00
18779;DHT22;9518;51.720;14.384;2022-07-23T06:09:17;18.70;1.00
18779;DHT22;9518;51.720;14.384;2022-07-23T06:11:44;18.80;1.00
18779;DHT22;9518;51.720;14.384;2022-07-23T06:14:11;18.80;99.90
18779;DHT22;9518;51.720;14.384;2022-07-23T06:16:39;18.90;99.90
18779;DHT22;9518;51.720;14.384;2022-07-23T06:19:06;18.90;1.00
18779;DHT22;9518;51.720;14.384;2022-07-23T06:21:33;19.10;1.00
18779;DHT22;9518;51.720;14.384;2022-07-23T06:24:00;19.20;1.00
18779;DHT22;9518;51.720;14.384;2022-07-23T06:26:27;19.20;1.00
18779;DHT22;9518;51.720;14.384;2022-07-23T06:28:54;19.30;1.00
18779;DHT22;9518;51.720;14.384;2022-07-23T06:31:21;19.30;1.00
18779;DHT22;9518;51.720;14.384;2022-07-23T06:33:49;19.30;1.00
18779;DHT22;9518;51.720;14.384;2022-07-23T06:36:16;19.20;1.00
18779;DHT22;9518;51.720;14.384;2022-07-23T06:38:43;19.20;1.00
18779;DHT22;9518;51.720;14.384;2022-07-23T06:41:10;19.20;99.90
18779;DHT22;9518;51.720;14.384;2022-07-23T06:43:36;19.20;1.00
18779;DHT22;9518;51.720;14.384;2022-07-23T06:46:04;19.20;1.00
18779;DHT22;9518;51.720;14.384;2022-07-23T06:48:31;19.20;1.00
18779;DHT22;9518;51.720;14.384;2022-07-23T06:51:01;19.30;1.00
18779;DHT22;9518;51.720;14.384;2022-07-23T06:53:28;19.40;48.40
18779;DHT22;9518;51.720;14.384;2022-07-23T06:55:55;19.40;1.00
18779;DHT22;9518;51.720;14.384;2022-07-23T06:58:22;19.30;99.90
18779;DHT22;9518;51.720;14.384;2022-07-23T07:00:48;19.20;1.00
18779;DHT22;9518;51.720;14.384;2022-07-23T07:03:17;19.20;1.00
18779;DHT22;9518;51.720;14.384;2022-07-23T07:05:43;19.20;1.00
18779;DHT22;9518;51.720;14.384;2022-07-23T07:08:12;19.30;14.10
18779;DHT22;9518;51.720;14.384;2022-07-23T07:10:39;19.40;99.90
18779;DHT22;9518;51.720;14.384;2022-07-23T07:13:06;19.50;1.00
18779;DHT22;9518;51.720;14.384;2022-07-23T07:15:33;19.60;1.00
18779;DHT22;9518;51.720;14.384;2022-07-23T07:18:00;19.60;1.00
18779;DHT22;9518;51.720;14.384;2022-07-23T07:20:27;19.90;1.00
18779;DHT22;9518;51.720;14.384;2022-07-23T07:22:54;20.10;1.00
18779;DHT22;9518;51.720;14.384;2022-07-23T07:25:22;20.30;99.90
18779;DHT22;9518;51.720;14.384;2022-07-23T07:27:49;20.40;1.00
18779;DHT22;9518;51.720;14.384;2022-07-23T07:30:16;20.60;1.00
18779;DHT22;9518;51.720;14.384;2022-07-23T07:32:43;20.90;1.00
18779;DHT22;9518;51.720;14.384;2022-07-23T07:35:10;21.30;1.00
18779;DHT22;9518;51.720;14.384;2022-07-23T07:37:37;21.70;1.00
18779;DHT22;9518;51.720;14.384;2022-07-23T07:40:05;22.10;1.00
18779;DHT22;9518;51.720;14.384;2022-07-23T07:42:33;22.50;99.90
18779;DHT22;9518;51.720;14.384;2022-07-23T07:45:00;22.70;99.90
18779;DHT22;9518;51.720;14.384;2022-07-23T07:47:27;22.60;24.50
18779;DHT22;9518;51.720;14.384;2022-07-23T07:49:54;22.50;5.60
18779;DHT22;9518;51.720;14.384;2022-07-23T07:52:21;22.60;44.40
18779;DHT22;9518;51.720;14.384;2022-07-23T07:54:48;22.90;1.00
18779;DHT22;9518;51.720;14.384;2022-07-23T07:57:15;23.10;1.00
18779;DHT22;9518;51.720;14.384;2022-07-23T07:59:43;23.10;1.00
18779;DHT22;9518;51.720;14.384;2022-07-23T08:02:10;23.60;1.00
18779;DHT22;9518;51.720;14.384;2022-07-23T08:04:37;23.70;1.00
18779;DHT22;9518;51.720;14.384;2022-07-23T08:07:04;23.80;1.00
18779;DHT22;9518;51.720;14.384;2022-07-23T08:09:33;24.00;1.00
18779;DHT22;9518;51.720;14.384;2022-07-23T08:12:00;24.00;1.00
18779;DHT22;9518;51.720;14.384;2022-07-23T08:14:27;24.20;1.00
18779;DHT22;9518;51.720;14.384;2022-07-23T08:16:56;24.60;1.00
18779;DHT22;9518;51.720;14.384;2022-07-23T08:19:23;24.90;1.00
18779;DHT22;9518;51.720;14.384;2022-07-23T08:21:50;25.10;1.00
18779;DHT22;9518;51.720;14.384;2022-07-23T08:24:16;25.40;1.00
18779;DHT22;9518;51.720;14.384;2022-07-23T08:26:43;25.50;1.00
18779;DHT22;9518;51.720;14.384;2022-07-23T08:29:10;25.70;1.00
18779;DHT22;9518;51.720;14.384;2022-07-23T08:31:37;25.60;1.00
18779;DHT22;9518;51.720;14.384;2022-07-23T08:34:07;25.70;1.00
18779;DHT22;9518;51.720;14.384;2022-07-23T08:36:34;25.80;1.00
18779;DHT22;9518;51.720;14.384;2022-07-23T08:39:01;26.20;1.00
18779;DHT22;9518;51.720;14.384;2022-07-23T08:41:29;26.90;1.00
18779;DHT22;9518;51.720;14.384;2022-07-23T08:43:57;27.00;1.00
18779;DHT22;9518;51.720;14.384;2022-07-23T08:46:26;27.10;1.00
18779;DHT22;9518;51.720;14.384;2022-07-23T08:48:54;27.10;1.00
18779;DHT22;9518;51.720;14.384;2022-07-23T08:51:26;27.10;1.00
18779;DHT22;9518;51.720;14.384;2022-07-23T08:53:56;27.10;1.00
18779;DHT22;9518;51.720;14.384;2022-07-23T08:56:24;26.90;1.00
18779;DHT22;9518;51.720;14.384;2022-07-23T08:58:53;26.50;1.00
18779;DHT22;9518;51.720;14.384;2022-07-23T09:01:20;26.00;1.00
18779;DHT22;9518;51.720;14.384;2022-07-23T09:03:47;25.00;1.00
18779;DHT22;9518;51.720;14.384;2022-07-23T09:06:14;24.30;1.00
18779;DHT22;9518;51.720;14.384;2022-07-23T09:08:43;23.70;1.00
18779;DHT22;9518;51.720;14.384;2022-07-23T09:11:13;23.40;1.00
18779;DHT22;9518;51.720;14.384;2022-07-23T09:13:46;23.70;1.00
18779;DHT22;9518;51.720;14.384;2022-07-23T09:16:15;24.10;1.00
18779;DHT22;9518;51.720;14.384;2022-07-23T09:18:44;24.60;1.00
18779;DHT22;9518;51.720;14.384;2022-07-23T09:21:18;25.00;1.00
18779;DHT22;9518;51.720;14.384;2022-07-23T09:23:50;25.40;1.00
18779;DHT22;9518;51.720;14.384;2022-07-23T09:26:24;25.90;1.00
18779;DHT22;9518;51.720;14.384;2022-07-23T09:28:54;26.40;1.00
18779;DHT22;9518;51.720;14.384;2022-07-23T09:31:21;26.40;1.00
18779;DHT22;9518;51.720;14.384;2022-07-23T09:33:49;26.60;1.00
18779;DHT22;9518;51.720;14.384;2022-07-23T09:36:27;27.00;1.00
18779;DHT22;9518;51.720;14.384;2022-07-23T09:38:55;27.50;1.00
18779;DHT22;9518;51.720;14.384;2022-07-23T09:41:22;27.50;1.00
18779;DHT22;9518;51.720;14.384;2022-07-23T09:43:55;27.20;1.00
18779;DHT22;9518;51.720;14.384;2022-07-23T09:46:23;27.30;1.00
18779;DHT22;9518;51.720;14.384;2022-07-23T09:48:51;27.10;1.00
18779;DHT22;9518;51.720;14.384;2022-07-23T09:51:18;27.00;1.00
18779;DHT22;9518;51.720;14.384;2022-07-23T09:53:49;27.20;1.00
18779;DHT22;9518;51.720;14.384;2022-07-23T09:56:19;27.40;1.00
18779;DHT22;9518;51.720;14.384;2022-07-23T09:58:49;27.60;1.00
18779;DHT22;9518;51.720;14.384;2022-07-23T10:01:16;27.10;1.00
18779;DHT22;9518;51.720;14.384;2022-07-23T10:03:45;26.80;1.00
18779;DHT22;9518;51.720;14.384;2022-07-23T10:06:13;27.00;1.00
18779;DHT22;9518;51.720;14.384;2022-07-23T10:08:41;27.40;1.00
18779;DHT22;9518;51.720;14.384;2022-07-23T10:11:09;27.50;1.00
18779;DHT22;9518;51.720;14.384;2022-07-23T10:13:54;27.10;1.00
18779;DHT22;9518;51.720;14.384;2022-07-23T10:16:23;27.30;1.00
18779;DHT22;9518;51.720;14.384;2022-07-23T10:18:50;27.40;1.00
18779;DHT22;9518;51.720;14.384;2022-07-23T10:21:22;27.60;1.00
18779;DHT22;9518;51.720;14.384;2022-07-23T10:24:01;28.10;1.00
18779;DHT22;9518;51.720;14.384;2022-07-23T10:26:36;27.80;1.00
18779;DHT22;9518;51.720;14.384;2022-07-23T10:29:17;27.50;1.00
18779;DHT22;9518;51.720;14.384;2022-07-23T10:31:56;27.50;1.00
18779;DHT22;9518;51.720;14.384;2022-07-23T10:34:36;27.00;1.00
18779;DHT22;9518;51.720;14.384;2022-07-23T10:37:12;27.10;1.00
18779;DHT22;9518;51.720;14.384;2022-07-23T10:39:42;26.80;1.00
18779;DHT22;9518;51.720;14.384;2022-07-23T10:42:10;26.70;1.00
18779;DHT22;9518;51.720;14.384;2022-07-23T10:44:41;26.70;1.00
18779;DHT22;9518;51.720;14.384;2022-07-23T10:47:09;26.80;1.00
18779;DHT22;9518;51.720;14.384;2022-07-23T10:49:50;26.80;1.00
18779;DHT22;9518;51.720;14.384;2022-07-23T10:52:22;26.80;1.00
18779;DHT22;9518;51.720;14.384;2022-07-23T10:54:52;26.40;1.00
18779;DHT22;9518;51.720;14.384;2022-07-23T10:57:20;25.60;1.00
18779;DHT22;9518;51.720;14.384;2022-07-23T11:00:12;25.10;1.00
18779;DHT22;9518;51.720;14.384;2022-07-23T11:02:42;24.90;1.00
18779;DHT22;9518;51.720;14.384;2022-07-23T11:05:11;25.20;1.00
18779;DHT22;9518;51.720;14.384;2022-07-23T11:10:56;25.20;1.00
18779;DHT22;9518;51.720;14.384;2022-07-23T11:13:41;25.10;1.00
18779;DHT22;9518;51.720;14.384;2022-07-23T11:16:16;25.40;1.00
18779;DHT22;9518;51.720;14.384;2022-07-23T11:19:04;26.10;1.00
18779;DHT22;9518;51.720;14.384;2022-07-23T11:21:43;26.50;1.00
18779;DHT22;9518;51.720;14.384;2022-07-23T11:24:11;26.50;1.00
18779;DHT22;9518;51.720;14.384;2022-07-23T11:26:54;26.00;1.00
18779;DHT22;9518;51.720;14.384;2022-07-23T11:29:48;25.40;1.00
18779;DHT22;9518;51.720;14.384;2022-07-23T11:32:35;25.50;1.00
18779;DHT22;9518;51.720;14.384;2022-07-23T11:35:19;25.70;1.00
18779;DHT22;9518;51.720;14.384;2022-07-23T11:37:48;25.90;1.00
18779;DHT22;9518;51.720;14.384;2022-07-23T11:40:16;25.80;1.00
18779;DHT22;9518;51.720;14.384;2022-07-23T11:42:55;25.90;1.00
18779;DHT22;9518;51.720;14.384;2022-07-23T11:45:23;26.20;1.00
18779;DHT22;9518;51.720;14.384;2022-07-23T11:47:52;26.50;1.00
18779;DHT22;9518;51.720;14.384;2022-07-23T11:50:19;26.90;1.00
18779;DHT22;9518;51.720;14.384;2022-07-23T11:52:46;26.80;1.00
18779;DHT22;9518;51.720;14.384;2022-07-23T11:55:12;26.40;1.00
18779;DHT22;9518;51.720;14.384;2022-07-23T11:57:42;26.10;1.00
18779;DHT22;9518;51.720;14.384;2022-07-23T12:00:11;25.70;1.00
18779;DHT22;9518;51.720;14.384;2022-07-23T12:02:39;25.30;1.00
18779;DHT22;9518;51.720;14.384;2022-07-23T12:05:11;24.60;1.00
18779;DHT22;9518;51.720;14.384;2022-07-23T12:07:40;24.20;1.00
18779;DHT22;9518;51.720;14.384;2022-07-23T12:10:14;23.90;1.00
18779;DHT22;9518;51.720;14.384;2022-07-23T12:12:43;23.50;1.00
18779;DHT22;9518;51.720;14.384;2022-07-23T12:15:11;23.30;1.00
18779;DHT22;9518;51.720;14.384;2022-07-23T12:17:40;23.30;1.00
18779;DHT22;9518;51.720;14.384;2022-07-23T12:20:12;23.50;1.00
18779;DHT22;9518;51.720;14.384;2022-07-23T12:22:40;23.70;1.00
18779;DHT22;9518;51.720;14.384;2022-07-23T12:25:09;23.90;1.00
18779;DHT22;9518;51.720;14.384;2022-07-23T12:27:37;24.10;1.00
18779;DHT22;9518;51.720;14.384;2022-07-23T12:30:23;24.30;1.00
18779;DHT22;9518;51.720;14.384;2022-07-23T12:32:53;24.70;1.00
18779;DHT22;9518;51.720;14.384;2022-07-23T12:35:23;24.80;1.00
18779;DHT22;9518;51.720;14.384;2022-07-23T12:37:51;24.80;1.00
18779;DHT22;9518;51.720;14.384;2022-07-23T12:40:28;24.60;1.00
18779;DHT22;9518;51.720;14.384;2022-07-23T12:42:57;24.40;1.00
18779;DHT22;9518;51.720;14.384;2022-07-23T12:45:25;23.90;1.00
18779;DHT22;9518;51.720;14.384;2022-07-23T12:47:58;23.50;1.00
18779;DHT22;9518;51.720;14.384;2022-07-23T12:50:54;23.30;1.00
18779;DHT22;9518;51.720;14.384;2022-07-23T12:53:23;23.20;1.00
18779;DHT22;9518;51.720;14.384;2022-07-23T12:55:57;23.20;1.00
18779;DHT22;9518;51.720;14.384;2022-07-23T12:58:25;23.20;1.00
18779;DHT22;9518;51.720;14.384;2022-07-23T13:01:00;23.10;18.30
18779;DHT22;9518;51.720;14.384;2022-07-23T13:03:29;22.80;99.90
18779;DHT22;9518;51.720;14.384;2022-07-23T13:05:59;22.80;99.90
18779;DHT22;9518;51.720;14.384;2022-07-23T13:08:27;22.80;99.90
18779;DHT22;9518;51.720;14.384;2022-07-23T13:10:55;22.90;99.90
18779;DHT22;9518;51.720;14.384;2022-07-23T13:13:23;23.20;99.90
18779;DHT22;9518;51.720;14.384;2022-07-23T13:15:50;23.60;32.40
18779;DHT22;9518;51.720;14.384;2022-07-23T13:18:18;23.90;1.00
18779;DHT22;9518;51.720;14.384;2022-07-23T13:20:45;23.80;1.00
18779;DHT22;9518;51.720;14.384;2022-07-23T13:23:15;23.70;1.00
18779;DHT22;9518;51.720;14.384;2022-07-23T13:25:42;23.90;1.00
18779;DHT22;9518;51.720;14.384;2022-07-23T13:28:10;24.20;1.00
18779;DHT22;9518;51.720;14.384;2022-07-23T13:30:38;24.60;1.00
18779;DHT22;9518;51.720;14.384;2022-07-23T13:33:05;25.20;1.00
18779;DHT22;9518;51.720;14.384;2022-07-23T13:35:34;26.80;1.00
18779;DHT22;9518;51.720;14.384;2022-07-23T13:38:02;27.50;1.00
18779;DHT22;9518;51.720;14.384;2022-07-23T13:40:30;27.80;1.00
18779;DHT22;9518;51.720;14.384;2022-07-23T13:42:57;27.70;1.00
18779;DHT22;9518;51.720;14.384;2022-07-23T13:45:24;28.20;1.00
18779;DHT22;9518;51.720;14.384;2022-07-23T13:47:51;28.30;1.00
18779;DHT22;9518;51.720;14.384;2022-07-23T13:50:18;28.00;1.00
18779;DHT22;9518;51.720;14.384;2022-07-23T13:52:45;27.90;1.00
18779;DHT22;9518;51.720;14.384;2022-07-23T13:55:12;27.60;1.00
18779;DHT22;9518;51.720;14.384;2022-07-23T13:57:40;26.80;1.00
18779;DHT22;9518;51.720;14.384;2022-07-23T14:00:09;26.70;1.00
18779;DHT22;9518;51.720;14.384;2022-07-23T14:02:37;26.90;1.00
18779;DHT22;9518;51.720;14.384;2022-07-23T14:05:06;27.10;1.00
18779;DHT22;9518;51.720;14.384;2022-07-23T14:07:34;27.40;1.00
18779;DHT22;9518;51.720;14.384;2022-07-23T14:10:01;27.30;1.00
18779;DHT22;9518;51.720;14.384;2022-07-23T14:12:28;27.20;1.00
18779;DHT22;9518;51.720;14.384;2022-07-23T14:14:57;27.20;1.00
18779;DHT22;9518;51.720;14.384;2022-07-23T14:17:24;27.50;1.00
18779;DHT22;9518;51.720;14.384;2022-07-23T14:19:51;28.60;1.00
18779;DHT22;9518;51.720;14.384;2022-07-23T14:22:18;29.50;1.00
18779;DHT22;9518;51.720;14.384;2022-07-23T14:24:44;30.10;1.00
18779;DHT22;9518;51.720;14.384;2022-07-23T14:27:11;30.40;1.00
18779;DHT22;9518;51.720;14.384;2022-07-23T14:29:38;31.40;1.00
18779;DHT22;9518;51.720;14.384;2022-07-23T14:32:07;31.10;1.00
18779;DHT22;9518;51.720;14.384;2022-07-23T14:34:34;31.30;1.00
18779;DHT22;9518;51.720;14.384;2022-07-23T14:37:01;31.30;1.00
18779;DHT22;9518;51.720;14.384;2022-07-23T14:39:28;31.30;1.00
18779;DHT22;9518;51.720;14.384;2022-07-23T14:41:55;30.20;99.90
18779;DHT22;9518;51.720;14.384;2022-07-23T14:44:22;28.70;99.90
18779;DHT22;9518;51.720;14.384;2022-07-23T14:46:49;28.20;1.00
18779;DHT22;9518;51.720;14.384;2022-07-23T14:49:17;29.00;1.00
18779;DHT22;9518;51.720;14.384;2022-07-23T14:51:44;30.40;1.00
18779;DHT22;9518;51.720;14.384;2022-07-23T14:54:11;30.80;1.00
18779;DHT22;9518;51.720;14.384;2022-07-23T14:56:39;31.30;99.90
18779;DHT22;9518;51.720;14.384;2022-07-23T14:59:07;31.30;99.90
18779;DHT22;9518;51.720;14.384;2022-07-23T15:01:34;31.00;99.90
18779;DHT22;9518;51.720;14.384;2022-07-23T15:04:02;31.00;99.90
18779;DHT22;9518;51.720;14.384;2022-07-23T15:06:30;30.40;99.90
18779;DHT22;9518;51.720;14.384;2022-07-23T15:08:57;31.80;99.90
18779;DHT22;9518;51.720;14.384;2022-07-23T15:11:24;31.40;99.90
18779;DHT22;9518;51.720;14.384;2022-07-23T15:13:51;31.40;99.90
18779;DHT22;9518;51.720;14.384;2022-07-23T15:16:18;31.60;99.90
18779;DHT22;9518;51.720;14.384;2022-07-23T15:18:44;31.40;99.90
18779;DHT22;9518;51.720;14.384;2022-07-23T15:21:11;31.70;99.90
18779;DHT22;9518;51.720;14.384;2022-07-23T15:23:40;32.00;99.90
18779;DHT22;9518;51.720;14.384;2022-07-23T15:26:07;32.20;99.90
18779;DHT22;9518;51.720;14.384;2022-07-23T15:28:35;32.90;99.90
18779;DHT22;9518;51.720;14.384;2022-07-23T15:31:02;33.50;99.90
18779;DHT22;9518;51.720;14.384;2022-07-23T15:33:29;33.20;99.90
18779;DHT22;9518;51.720;14.384;2022-07-23T15:35:56;32.80;99.90
18779;DHT22;9518;51.720;14.384;2022-07-23T15:38:25;32.80;99.90
18779;DHT22;9518;51.720;14.384;2022-07-23T15:40:54;32.10;99.90
18779;DHT22;9518;51.720;14.384;2022-07-23T15:43:21;30.70;99.90
18779;DHT22;9518;51.720;14.384;2022-07-23T15:45:48;30.10;99.90
18779;DHT22;9518;51.720;14.384;2022-07-23T15:48:16;29.20;99.90
18779;DHT22;9518;51.720;14.384;2022-07-23T15:50:42;30.10;99.90
18779;DHT22;9518;51.720;14.384;2022-07-23T15:53:09;31.40;99.90